createdAt,value
2018-05-25T00:02:04.760Z,61.7
2018-05-25T00:07:04.345Z,61.8
2018-05-25T00:12:04.398Z,61.8
2018-05-25T00:17:04.996Z,61.7
2018-05-25T00:22:05.055Z,61.6
2018-05-25T00:27:04.459Z,61.7
2018-05-25T00:32:05.155Z,61.8
2018-05-25T00:37:04.827Z,61.5
2018-05-25T00:42:04.534Z,61.4
2018-05-25T00:47:04.982Z,61.6
2018-05-25T00:52:05.147Z,61.4
2018-05-25T00:57:04.427Z,61.3
2018-05-25T01:02:05.050Z,61.4
2018-05-25T01:07:05.137Z,61.3
2018-05-25T01:12:04.779Z,61.3
2018-05-25T01:17:04.485Z,61.3
2018-05-25T01:22:04.911Z,61.3
2018-05-25T01:27:04.392Z,61.3
2018-05-25T01:32:05.051Z,61.3
2018-05-25T01:37:05.010Z,61.3
2018-05-25T01:42:04.604Z,61.2
2018-05-25T01:47:05.194Z,61.1
2018-05-25T01:52:05.015Z,61.1
2018-05-25T01:57:04.599Z,61.1
2018-05-25T02:02:04.630Z,60.9
2018-05-25T02:07:04.972Z,60.9
2018-05-25T02:12:04.514Z,61.1
2018-05-25T02:17:05.341Z,61.2
2018-05-25T02:22:05.036Z,61.3
2018-05-25T02:27:04.893Z,61.3
2018-05-25T02:32:04.653Z,61.1
2018-05-25T02:37:04.568Z,61.3
2018-05-25T02:42:04.641Z,61.3
2018-05-25T02:47:05.232Z,61.0
2018-05-25T02:52:05.184Z,61.0
2018-05-25T02:57:05.046Z,60.8
2018-05-25T03:02:18.861Z,60.2
2018-05-25T03:07:04.712Z,60.8
2018-05-25T03:12:05.143Z,60.8
2018-05-25T03:17:23.429Z,60.7
2018-05-25T03:22:04.418Z,60.8
2018-05-25T03:27:04.430Z,60.9
2018-05-25T03:32:18.028Z,60.7
2018-05-25T03:37:05.018Z,61.0
2018-05-25T03:42:04.283Z,60.8
2018-05-25T03:47:17.132Z,60.8
2018-05-25T03:52:04.484Z,61.0
2018-05-25T03:57:04.491Z,61.1
2018-05-25T04:02:20.174Z,61.3
2018-05-25T04:07:05.081Z,61.2
2018-05-25T04:12:04.581Z,61.1
2018-05-25T04:17:20.659Z,61.0
2018-05-25T04:22:04.768Z,60.9
2018-05-25T04:27:04.962Z,60.6
2018-05-25T04:32:17.944Z,60.7
2018-05-25T04:37:04.580Z,60.6
2018-05-25T04:42:04.495Z,60.6
2018-05-25T04:47:15.656Z,60.4
2018-05-25T04:52:04.796Z,60.3
2018-05-25T04:57:04.767Z,60.3
2018-05-25T05:02:19.257Z,59.8
2018-05-25T05:07:04.645Z,59.9
2018-05-25T05:12:04.652Z,59.8
2018-05-25T05:17:21.217Z,59.6
2018-05-25T05:22:04.550Z,59.6
2018-05-25T05:27:04.583Z,59.4
2018-05-25T05:32:21.469Z,59.7
2018-05-25T05:37:04.869Z,59.6
2018-05-25T05:42:04.891Z,59.5
2018-05-25T05:47:21.956Z,59.3
2018-05-25T05:52:04.374Z,59.3
2018-05-25T05:57:04.379Z,59.4
2018-05-25T06:02:21.586Z,59.0
2018-05-25T06:07:04.971Z,59.0
2018-05-25T06:12:04.402Z,58.9
2018-05-25T06:17:21.246Z,58.8
2018-05-25T06:22:04.731Z,58.6
2018-05-25T06:27:04.891Z,58.9
2018-05-25T06:32:22.813Z,59.3
2018-05-25T06:37:04.381Z,59.5
2018-05-25T06:42:04.588Z,59.5
2018-05-25T06:47:21.862Z,59.6
2018-05-25T06:52:04.846Z,59.8
2018-05-25T06:57:04.947Z,60.0
2018-05-25T07:02:22.781Z,60.3
2018-05-25T07:07:04.820Z,60.2
2018-05-25T07:12:05.040Z,60.4
2018-05-25T07:17:23.988Z,60.7
2018-05-25T07:22:04.556Z,60.7
2018-05-25T07:27:04.674Z,60.8
2018-05-25T07:32:24.412Z,61.0
2018-05-25T07:37:05.130Z,61.0
2018-05-25T07:42:04.391Z,61.2
2018-05-25T07:47:23.323Z,61.3
2018-05-25T07:52:04.890Z,61.4
2018-05-25T07:57:05.054Z,61.7
2018-05-25T08:02:21.964Z,61.5
2018-05-25T08:07:04.534Z,61.4
2018-05-25T08:12:04.844Z,61.3
2018-05-25T08:17:22.586Z,61.8
2018-05-25T08:22:04.725Z,61.8
2018-05-25T08:27:04.652Z,61.3
2018-05-25T08:32:24.547Z,61.8
2018-05-25T08:37:05.018Z,61.6
2018-05-25T08:42:04.350Z,61.6
2018-05-25T08:47:23.671Z,61.3
2018-05-25T08:52:04.578Z,61.3
2018-05-25T08:57:04.754Z,61.8
2018-05-25T09:02:24.160Z,61.6
2018-05-25T09:07:04.587Z,61.2
2018-05-25T09:12:04.697Z,61.4
2018-05-25T09:17:25.069Z,61.1
2018-05-25T09:22:04.306Z,62.2
2018-05-25T09:27:04.597Z,61.5
2018-05-25T09:32:21.683Z,61.4
2018-05-25T09:37:04.777Z,62.1
2018-05-25T09:42:04.827Z,62.1
2018-05-25T09:47:25.374Z,62.4
2018-05-25T09:52:04.501Z,62.2
2018-05-25T09:57:04.558Z,61.3
2018-05-25T10:02:24.746Z,60.9
2018-05-25T10:07:04.593Z,60.6
2018-05-25T10:12:04.605Z,60.5
2018-05-25T10:17:24.222Z,60.7
2018-05-25T10:22:04.313Z,60.7
2018-05-25T10:27:04.907Z,60.8
2018-05-25T10:32:23.067Z,62.0
2018-05-25T10:37:05.309Z,62.0
2018-05-25T10:42:04.319Z,62.9
2018-05-25T10:47:27.675Z,62.9
2018-05-25T10:52:04.605Z,62.4
2018-05-25T10:57:05.319Z,62.5
2018-05-25T11:02:25.787Z,62.8
2018-05-25T11:07:04.427Z,62.8
2018-05-25T11:12:05.105Z,62.9
2018-05-25T11:17:21.990Z,63.7
2018-05-25T11:22:04.348Z,63.0
2018-05-25T11:27:04.801Z,63.8
2018-05-25T11:32:22.009Z,63.7
2018-05-25T11:37:04.943Z,63.6
2018-05-25T11:42:05.005Z,62.5
2018-05-25T11:47:23.554Z,62.0
2018-05-25T11:52:04.492Z,62.1
2018-05-25T11:57:04.612Z,61.5
2018-05-25T12:02:19.191Z,60.9
2018-05-25T12:07:04.416Z,60.5
2018-05-25T12:12:04.669Z,60.3
2018-05-25T12:17:24.392Z,60.0
2018-05-25T12:22:04.444Z,59.1
2018-05-25T12:27:04.594Z,59.2
2018-05-25T12:32:27.070Z,60.0
2018-05-25T12:37:05.095Z,60.3
2018-05-25T12:42:04.387Z,60.1
2018-05-25T12:47:19.474Z,60.7
2018-05-25T12:52:04.790Z,60.7
2018-05-25T12:57:04.908Z,60.5
2018-05-25T13:02:22.737Z,60.9
2018-05-25T13:07:04.550Z,60.9
2018-05-25T13:12:04.879Z,60.8
2018-05-25T13:17:20.374Z,60.8
2018-05-25T13:22:04.580Z,60.5
2018-05-25T13:27:04.539Z,60.0
2018-05-25T13:32:21.101Z,60.6
2018-05-25T13:37:05.059Z,60.4
2018-05-25T13:42:05.048Z,60.5
2018-05-25T13:47:25.498Z,60.4
2018-05-25T13:52:04.573Z,60.4
2018-05-25T13:57:04.770Z,60.4
2018-05-25T14:02:20.275Z,60.7
2018-05-25T14:07:04.776Z,60.8
2018-05-25T14:12:04.944Z,60.7
2018-05-25T14:17:20.689Z,58.6
2018-05-25T14:22:04.455Z,58.5
2018-05-25T14:27:04.559Z,58.6
2018-05-25T14:32:22.821Z,58.5
2018-05-25T14:37:05.023Z,55.5
2018-05-25T14:42:05.366Z,55.5
2018-05-25T14:47:22.933Z,57.6
2018-05-25T14:52:04.505Z,57.3
2018-05-25T14:57:04.754Z,58.3
2018-05-25T15:02:19.693Z,59.9
2018-05-25T15:07:04.339Z,59.9
2018-05-25T15:12:04.639Z,60.2
2018-05-25T15:17:19.186Z,60.5
2018-05-25T15:22:04.978Z,59.2
2018-05-25T15:27:05.104Z,58.4
2018-05-25T15:32:17.904Z,53.8
2018-05-25T15:37:04.476Z,45.8
2018-05-25T15:42:04.468Z,47.5
2018-05-25T15:47:19.153Z,47.5
2018-05-25T15:52:04.802Z,52.5
2018-05-25T15:57:04.798Z,55.7
2018-05-25T16:02:16.400Z,55.8
2018-05-25T16:07:04.596Z,46.4
2018-05-25T16:12:04.681Z,46.3
2018-05-25T16:17:14.294Z,39.7
2018-05-25T16:22:05.013Z,39.7
2018-05-25T16:27:04.988Z,41.8
2018-05-25T16:32:14.211Z,42.7
2018-05-25T16:37:04.359Z,41.8
2018-05-25T16:42:04.443Z,41.0
2018-05-25T16:47:12.316Z,41.3
2018-05-25T16:52:04.592Z,41.2
2018-05-25T16:57:04.642Z,42.0
2018-05-25T17:02:14.949Z,42.8
2018-05-25T17:07:05.006Z,42.7
2018-05-25T17:12:04.327Z,42.6
2018-05-25T17:17:05.705Z,43.3
2018-05-25T17:22:04.610Z,44.1
2018-05-25T17:27:04.690Z,44.1
2018-05-25T17:32:12.018Z,44.3
2018-05-25T17:37:04.945Z,44.3
2018-05-25T17:42:04.814Z,44.5
2018-05-25T17:47:10.900Z,46.5
2018-05-25T17:52:04.198Z,46.5
2018-05-25T17:57:04.445Z,47.2
2018-05-25T18:02:17.015Z,50.9
2018-05-25T18:07:04.941Z,50.9
2018-05-25T18:12:04.993Z,55.6
2018-05-25T18:17:17.597Z,56.8
2018-05-25T18:22:04.737Z,57.7
2018-05-25T18:27:04.791Z,58.4
2018-05-25T18:32:19.251Z,58.7
2018-05-25T18:37:05.166Z,58.8
2018-05-25T18:42:04.298Z,58.7
2018-05-25T18:47:19.351Z,59.0
2018-05-25T18:52:04.542Z,59.0
2018-05-25T18:57:04.664Z,59.0
2018-05-25T19:02:19.163Z,59.0
2018-05-25T19:07:04.968Z,58.8
2018-05-25T19:12:04.599Z,59.3
2018-05-25T19:17:22.378Z,59.4
2018-05-25T19:22:04.688Z,59.4
2018-05-25T19:27:04.349Z,59.5
2018-05-25T19:32:23.476Z,59.5
2018-05-25T19:37:04.848Z,59.6
2018-05-25T19:42:04.844Z,59.4
2018-05-25T19:47:17.012Z,59.3
2018-05-25T19:52:04.026Z,59.3
2018-05-25T19:57:04.189Z,59.3
2018-05-25T20:02:13.285Z,59.1
2018-05-25T20:07:04.791Z,59.2
2018-05-25T20:12:05.021Z,59.2
2018-05-25T20:17:12.501Z,59.2
2018-05-25T20:22:04.410Z,59.1
2018-05-25T20:27:04.823Z,58.9
2018-05-25T20:32:08.531Z,58.9
2018-05-25T20:37:04.771Z,58.7
2018-05-25T20:42:04.812Z,58.6
2018-05-25T20:47:12.582Z,58.6
2018-05-25T20:52:05.151Z,58.6
2018-05-25T20:57:05.157Z,58.6
2018-05-25T21:02:05.859Z,58.8
2018-05-25T21:07:04.385Z,58.8
2018-05-25T21:12:04.632Z,58.6
2018-05-25T21:17:04.777Z,58.7
2018-05-25T21:22:04.781Z,58.7
2018-05-25T21:27:05.143Z,58.6
2018-05-25T21:32:07.713Z,58.7
2018-05-25T21:37:05.362Z,58.7
2018-05-25T21:42:04.363Z,58.7
2018-05-25T21:47:05.632Z,58.7
2018-05-25T21:52:04.508Z,58.7
2018-05-25T21:57:04.442Z,58.7
2018-05-25T22:02:05.217Z,58.9
2018-05-25T22:07:04.379Z,58.7
2018-05-25T22:12:05.105Z,58.7
2018-05-25T22:22:17.168Z,58.3
2018-05-25T22:27:17.126Z,58.4
2018-05-25T22:32:17.178Z,58.6
2018-05-25T22:37:16.301Z,58.6
2018-05-25T22:42:16.762Z,58.5
2018-05-25T22:47:16.366Z,58.4
2018-05-25T22:52:17.118Z,58.5
2018-05-25T22:57:17.053Z,58.4
2018-05-25T23:02:17.043Z,58.4
2018-05-25T23:07:16.276Z,58.4
2018-05-25T23:12:04.810Z,58.3
2018-05-25T23:17:04.424Z,58.3
2018-05-25T23:22:04.294Z,58.2
2018-05-25T23:27:04.709Z,58.4
2018-05-25T23:32:04.350Z,58.3
2018-05-25T23:37:04.354Z,58.2
2018-05-25T23:42:04.715Z,58.2
2018-05-25T23:47:04.321Z,58.0
2018-05-25T23:52:04.711Z,58.0
2018-05-25T23:57:04.332Z,58.2
